createdAt,value
2023-05-18T00:01:14.410Z,3.20
2023-05-18T00:03:41.413Z,4.70
2023-05-18T00:06:08.337Z,7.00
2023-05-18T00:15:56.272Z,9.40
2023-05-18T00:18:23.972Z,9.30
2023-05-18T00:20:51.118Z,10.50
2023-05-18T00:23:17.853Z,11.50
2023-05-18T00:28:12.701Z,13.80
2023-05-18T00:30:40.045Z,13.50
2023-05-18T00:33:06.722Z,14.30
2023-05-18T00:35:33.470Z,15.60
2023-05-18T00:38:00.142Z,17.00
2023-05-18T00:40:27.807Z,16.80
2023-05-18T00:42:54.490Z,18.80
2023-05-18T00:45:21.112Z,19.00
2023-05-18T00:47:48.377Z,20.40
2023-05-18T00:50:15.511Z,20.40
2023-05-18T00:52:43.418Z,20.80
2023-05-18T00:55:12.426Z,22.10
2023-05-18T00:57:42.040Z,23.10
2023-05-18T01:00:10.902Z,24.50
2023-05-18T01:02:42.528Z,25.60
2023-05-18T01:05:11.085Z,26.60
2023-05-18T01:07:39.523Z,27.40
2023-05-18T01:10:06.514Z,27.30
2023-05-18T01:12:37.406Z,27.30
2023-05-18T01:15:24.359Z,27.20
2023-05-18T01:18:00.791Z,27.10
2023-05-18T01:20:47.043Z,27.70
2023-05-18T01:23:22.753Z,28.10
2023-05-18T01:28:18.136Z,26.70
2023-05-18T01:30:45.161Z,26.60
2023-05-18T01:33:12.364Z,26.70
2023-05-18T01:35:41.909Z,26.70
2023-05-18T01:38:08.958Z,26.70
2023-05-18T01:45:31.032Z,26.70
2023-05-18T01:50:29.670Z,27.10
2023-05-18T01:53:00.563Z,28.70
2023-05-18T01:57:54.525Z,29.30
2023-05-18T02:05:15.573Z,30.60
2023-05-18T02:07:44.149Z,31.10
2023-05-18T02:10:11.314Z,31.80
2023-05-18T02:17:38.931Z,32.10
2023-05-18T02:20:09.081Z,32.00
2023-05-18T02:22:36.066Z,32.80
2023-05-18T02:27:29.729Z,36.40
2023-05-18T02:32:24.145Z,36.40
2023-05-18T02:34:53.887Z,36.30
2023-05-18T02:37:23.016Z,36.50
2023-05-18T02:39:50.112Z,37.60
2023-05-18T02:42:16.742Z,38.90
2023-05-18T02:44:43.796Z,39.00
2023-05-18T02:47:10.539Z,40.30
2023-05-18T02:49:37.261Z,40.30
2023-05-18T02:56:58.808Z,41.30
2023-05-18T03:04:20.111Z,43.90
2023-05-18T03:09:13.995Z,43.40
2023-05-18T03:16:35.467Z,44.20
2023-05-18T03:28:57.798Z,47.80
2023-05-18T03:36:18.553Z,47.40
2023-05-18T03:55:56.880Z,51.20
2023-05-18T04:13:09.960Z,51.90
2023-05-18T04:15:36.740Z,52.20
2023-05-18T04:20:30.753Z,53.30
2023-05-18T04:23:00.281Z,53.70
2023-05-18T04:25:28.084Z,54.00
2023-05-18T04:27:55.749Z,55.10
2023-05-18T04:30:23.378Z,53.90
2023-05-18T04:32:50.486Z,54.00
2023-05-18T04:35:18.453Z,53.00
2023-05-18T04:37:45.369Z,51.60
2023-05-18T04:42:50.442Z,49.60
2023-05-18T04:45:17.905Z,48.10
2023-05-18T04:47:46.530Z,47.50
2023-05-18T04:50:14.876Z,47.60
2023-05-18T04:52:49.090Z,46.40
2023-05-18T04:55:16.689Z,42.90
2023-05-18T04:57:47.261Z,41.70
2023-05-18T05:00:14.089Z,40.60
2023-05-18T05:02:41.104Z,40.30
2023-05-18T05:05:08.495Z,37.30
2023-05-18T05:07:35.597Z,37.40
2023-05-18T05:10:03.699Z,37.50
2023-05-18T05:12:30.401Z,37.70
2023-05-18T05:14:56.991Z,38.50
2023-05-18T05:17:24.626Z,33.90
2023-05-18T05:19:51.254Z,32.20
2023-05-18T05:22:19.775Z,29.10
2023-05-18T05:24:46.411Z,27.10
2023-05-18T05:27:13.154Z,24.60
2023-05-18T05:29:40.029Z,15.90
2023-05-18T05:32:06.907Z,16.90
2023-05-18T05:34:34.593Z,15.90
2023-05-18T05:37:01.253Z,13.70
2023-05-18T05:39:28.030Z,15.90
2023-05-18T05:41:54.787Z,11.00
2023-05-18T05:44:21.461Z,10.10
2023-05-18T05:46:48.560Z,10.60
2023-05-18T05:49:15.454Z,6.20
2023-05-18T05:51:42.179Z,5.50
2023-05-18T05:54:10.680Z,3.30
2023-05-18T05:59:04.561Z,1.00
2023-05-18T06:01:32.215Z,1.00
2023-05-18T06:03:59.054Z,1.00
2023-05-18T06:06:25.738Z,1.00
2023-05-18T06:08:52.354Z,1.00
2023-05-18T06:13:45.912Z,1.00
2023-05-18T06:18:40.762Z,1.00
2023-05-18T06:21:07.438Z,1.00
2023-05-18T06:23:34.032Z,1.00
2023-05-18T06:26:00.645Z,1.00
2023-05-18T06:28:28.063Z,1.00
2023-05-18T06:30:54.750Z,1.00
2023-05-18T06:33:23.476Z,1.00
2023-05-18T06:35:50.290Z,1.00
2023-05-18T06:38:16.863Z,1.00
2023-05-18T06:40:43.498Z,1.00
2023-05-18T06:43:10.078Z,1.00
2023-05-18T06:45:37.509Z,1.00
2023-05-18T06:48:04.770Z,1.00
2023-05-18T06:50:31.609Z,1.00
2023-05-18T06:52:58.216Z,1.00
2023-05-18T06:55:27.954Z,1.00
2023-05-18T06:57:56.888Z,1.00
2023-05-18T07:00:23.961Z,1.00
2023-05-18T07:02:50.864Z,1.00
2023-05-18T07:05:17.650Z,1.00
2023-05-18T07:07:44.350Z,1.00
2023-05-18T07:10:11.205Z,1.00
2023-05-18T07:12:37.811Z,1.00
2023-05-18T07:15:04.956Z,1.00
2023-05-18T07:17:31.698Z,1.00
2023-05-18T07:19:58.412Z,1.00
2023-05-18T07:22:25.053Z,1.00
2023-05-18T07:24:51.675Z,1.00
2023-05-18T07:27:18.388Z,1.00
2023-05-18T07:29:45.008Z,1.00
2023-05-18T07:32:15.133Z,1.00
2023-05-18T07:34:43.604Z,1.00
2023-05-18T07:37:10.442Z,1.00
2023-05-18T07:39:37.138Z,1.00
2023-05-18T07:42:03.912Z,1.00
2023-05-18T07:44:30.880Z,1.00
2023-05-18T07:46:58.796Z,1.00
2023-05-18T07:49:25.954Z,1.00
2023-05-18T07:51:52.732Z,1.00
2023-05-18T07:54:19.458Z,1.00
2023-05-18T07:56:46.816Z,1.00
2023-05-18T07:59:13.479Z,1.00
2023-05-18T08:01:40.747Z,1.00
2023-05-18T08:04:07.530Z,1.00
2023-05-18T08:06:34.428Z,1.00
2023-05-18T08:09:01.129Z,1.00
2023-05-18T08:11:27.764Z,1.00
2023-05-18T08:13:54.336Z,1.00
2023-05-18T08:16:21.271Z,1.00
2023-05-18T08:18:48.021Z,1.00
2023-05-18T08:21:14.680Z,1.00
2023-05-18T08:23:41.663Z,1.00
2023-05-18T08:26:10.062Z,1.00
2023-05-18T08:28:37.584Z,1.00
2023-05-18T08:31:05.213Z,1.00
2023-05-18T08:33:32.608Z,1.00
2023-05-18T08:35:59.275Z,1.00
2023-05-18T08:38:26.091Z,1.00
2023-05-18T08:41:02.249Z,1.00
2023-05-18T08:43:33.375Z,1.00
2023-05-18T08:46:20.070Z,1.00
2023-05-18T08:48:47.216Z,1.00
2023-05-18T08:51:19.815Z,1.00
2023-05-18T08:53:51.130Z,1.00
2023-05-18T08:56:18.767Z,1.00
2023-05-18T08:58:48.135Z,1.00
2023-05-18T09:01:14.897Z,1.00
2023-05-18T09:03:41.981Z,1.00
2023-05-18T09:06:08.667Z,1.00
2023-05-18T09:08:35.542Z,1.00
2023-05-18T09:11:02.819Z,1.00
2023-05-18T09:13:29.767Z,1.00
2023-05-18T09:15:56.405Z,1.00
2023-05-18T09:18:25.593Z,1.00
2023-05-18T09:20:53.573Z,1.00
2023-05-18T09:23:20.228Z,1.00
2023-05-18T09:25:49.624Z,1.00
2023-05-18T09:28:26.347Z,1.00
2023-05-18T09:30:54.031Z,1.00
2023-05-18T09:33:23.715Z,1.00
2023-05-18T09:35:51.436Z,1.00
2023-05-18T09:38:22.061Z,1.00
2023-05-18T09:40:49.623Z,1.00
2023-05-18T09:43:19.153Z,1.00
2023-05-18T09:45:47.877Z,1.00
2023-05-18T09:48:15.698Z,1.00
2023-05-18T09:50:46.223Z,1.00
2023-05-18T09:53:13.617Z,1.00
2023-05-18T09:55:47.862Z,1.00
2023-05-18T09:58:14.772Z,1.00
2023-05-18T10:00:42.936Z,1.00
2023-05-18T10:03:23.144Z,1.00
2023-05-18T10:05:50.261Z,1.00
2023-05-18T10:08:17.597Z,1.00
2023-05-18T10:10:45.731Z,1.00
2023-05-18T10:13:14.999Z,1.00
2023-05-18T10:15:48.905Z,1.00
2023-05-18T10:18:20.227Z,1.00
2023-05-18T10:20:47.646Z,1.00
2023-05-18T10:23:14.335Z,1.00
2023-05-18T10:25:42.479Z,1.00
2023-05-18T10:28:10.440Z,1.00
2023-05-18T10:30:37.744Z,1.00
2023-05-18T10:33:09.141Z,1.00
2023-05-18T10:35:41.200Z,1.00
2023-05-18T10:38:08.184Z,1.00
2023-05-18T10:40:36.092Z,1.00
2023-05-18T10:43:04.200Z,1.00
2023-05-18T10:45:33.871Z,1.00
2023-05-18T10:48:01.595Z,1.00
2023-05-18T10:50:29.376Z,1.00
2023-05-18T10:52:57.070Z,1.00
2023-05-18T10:55:23.711Z,1.00
2023-05-18T10:57:52.612Z,1.00
2023-05-18T11:00:20.080Z,1.00
2023-05-18T11:02:47.131Z,1.00
2023-05-18T11:05:13.865Z,1.00
2023-05-18T11:07:41.601Z,1.00
2023-05-18T11:10:11.476Z,1.00
2023-05-18T11:12:38.975Z,1.00
2023-05-18T11:15:06.069Z,1.00
2023-05-18T11:17:32.770Z,1.00
2023-05-18T11:20:08.994Z,1.00
2023-05-18T11:22:42.940Z,1.00
2023-05-18T11:25:30.214Z,1.00
2023-05-18T11:28:05.595Z,1.00
2023-05-18T11:30:32.410Z,1.00
2023-05-18T11:33:08.190Z,1.00
2023-05-18T11:35:53.984Z,1.00
2023-05-18T11:38:20.601Z,1.00
2023-05-18T11:40:47.839Z,1.00
2023-05-18T11:43:24.072Z,1.00
2023-05-18T11:45:55.098Z,1.00
2023-05-18T11:48:26.785Z,1.00
2023-05-18T11:50:54.864Z,1.00
2023-05-18T11:53:25.702Z,1.00
2023-05-18T11:55:53.497Z,1.00
2023-05-18T11:58:20.797Z,1.00
2023-05-18T12:00:48.457Z,1.00
2023-05-18T12:03:16.537Z,1.00
2023-05-18T12:05:49.125Z,1.00
2023-05-18T12:08:17.425Z,1.00
2023-05-18T12:10:44.624Z,1.00
2023-05-18T12:13:11.391Z,1.00
2023-05-18T12:15:38.155Z,1.00
2023-05-18T12:18:04.916Z,1.00
2023-05-18T12:20:31.950Z,1.00
2023-05-18T12:22:58.736Z,1.00
2023-05-18T12:25:26.776Z,1.00
2023-05-18T12:27:54.151Z,1.00
2023-05-18T12:30:22.087Z,1.00
2023-05-18T12:32:50.759Z,1.00
2023-05-18T12:35:17.958Z,1.00
2023-05-18T12:37:45.991Z,1.00
2023-05-18T12:40:19.896Z,1.00
2023-05-18T12:42:53.953Z,1.00
2023-05-18T12:45:22.684Z,1.00
2023-05-18T12:47:54.905Z,1.00
2023-05-18T12:50:22.618Z,1.00
2023-05-18T12:52:50.449Z,1.00
2023-05-18T12:55:25.016Z,1.00
2023-05-18T12:58:16.866Z,1.00
2023-05-18T13:00:47.581Z,1.00
2023-05-18T13:03:17.253Z,1.00
2023-05-18T13:05:45.460Z,1.00
2023-05-18T13:08:20.131Z,1.00
2023-05-18T13:10:49.339Z,1.00
2023-05-18T13:13:19.854Z,1.00
2023-05-18T13:15:46.762Z,1.00
2023-05-18T13:18:13.465Z,1.00
2023-05-18T13:20:40.087Z,1.00
2023-05-18T13:23:10.883Z,1.00
2023-05-18T13:25:37.679Z,1.00
2023-05-18T13:28:04.813Z,1.00
2023-05-18T13:30:32.020Z,1.00
2023-05-18T13:32:59.490Z,1.00
2023-05-18T13:35:26.089Z,1.00
2023-05-18T13:37:52.729Z,1.00
2023-05-18T13:40:20.654Z,1.00
2023-05-18T13:42:47.778Z,1.00
2023-05-18T13:45:16.124Z,1.00
2023-05-18T13:47:43.456Z,1.00
2023-05-18T13:50:10.137Z,1.00
2023-05-18T13:52:36.746Z,1.00
2023-05-18T13:55:04.606Z,1.00
2023-05-18T13:57:32.219Z,1.00
2023-05-18T13:59:59.622Z,1.00
2023-05-18T14:02:27.264Z,1.00
2023-05-18T14:04:54.001Z,1.00
2023-05-18T14:07:21.140Z,1.00
2023-05-18T14:09:47.718Z,1.00
2023-05-18T14:12:14.445Z,1.00
2023-05-18T14:14:41.203Z,1.00
2023-05-18T14:17:09.852Z,1.00
2023-05-18T14:19:37.927Z,1.00
2023-05-18T14:22:04.708Z,1.00
2023-05-18T14:24:31.391Z,1.00
2023-05-18T14:26:58.109Z,1.00
2023-05-18T14:29:24.866Z,1.00
2023-05-18T14:31:51.564Z,1.00
2023-05-18T14:34:18.183Z,1.00
2023-05-18T14:36:44.837Z,1.00
2023-05-18T14:39:11.590Z,1.00
2023-05-18T14:41:38.189Z,1.00
2023-05-18T14:44:09.230Z,1.00
2023-05-18T14:49:02.909Z,1.00
2023-05-18T14:51:29.604Z,1.00
2023-05-18T14:53:56.226Z,1.00
2023-05-18T14:56:22.889Z,1.00
2023-05-18T14:58:49.645Z,1.00
2023-05-18T15:01:16.257Z,1.00
2023-05-18T15:03:43.146Z,1.00
2023-05-18T15:06:10.179Z,1.00
2023-05-18T15:08:36.927Z,1.00
2023-05-18T15:11:03.535Z,1.00
2023-05-18T15:13:30.167Z,1.00
2023-05-18T15:15:56.901Z,1.00
2023-05-18T15:18:24.298Z,1.00
2023-05-18T15:20:51.000Z,1.00
2023-05-18T15:23:17.727Z,1.00
2023-05-18T15:25:44.785Z,1.00
2023-05-18T15:30:38.464Z,1.00
2023-05-18T15:33:06.260Z,1.00
2023-05-18T15:35:34.797Z,1.00
2023-05-18T15:42:56.541Z,1.00
2023-05-18T15:45:23.297Z,1.00
2023-05-18T16:05:01.536Z,1.00
2023-05-18T16:22:11.066Z,1.00
2023-05-18T16:27:04.800Z,1.00
2023-05-18T16:34:25.949Z,1.00
2023-05-18T16:36:52.587Z,1.00
2023-05-18T16:39:19.264Z,1.00
2023-05-18T16:41:45.906Z,1.00
2023-05-18T16:44:12.537Z,1.00
2023-05-18T16:46:39.249Z,1.00
2023-05-18T16:49:05.898Z,1.00
2023-05-18T16:51:32.580Z,1.00
2023-05-18T16:53:59.156Z,1.00
2023-05-18T16:58:53.899Z,1.00
2023-05-18T17:01:28.255Z,1.00
2023-05-18T17:06:22.902Z,1.00
2023-05-18T17:08:58.189Z,1.00
2023-05-18T17:11:26.850Z,1.00
2023-05-18T17:13:53.766Z,1.00
2023-05-18T17:16:22.208Z,1.00
2023-05-18T17:18:49.148Z,1.00
2023-05-18T17:21:16.430Z,1.00
2023-05-18T17:26:10.158Z,1.00
2023-05-18T17:28:36.776Z,1.00
2023-05-18T17:31:03.774Z,1.00
2023-05-18T17:33:30.727Z,1.00
2023-05-18T17:35:57.591Z,1.00
2023-05-18T17:38:24.275Z,1.00
2023-05-18T17:40:51.143Z,1.00
2023-05-18T17:43:17.750Z,1.00
2023-05-18T17:45:44.416Z,1.00
2023-05-18T17:48:11.052Z,1.00
2023-05-18T17:50:37.942Z,1.00
2023-05-18T17:53:04.888Z,1.00
2023-05-18T17:55:32.050Z,1.00
2023-05-18T17:58:01.078Z,1.00
2023-05-18T18:00:27.746Z,1.00
2023-05-18T18:02:55.490Z,1.00
2023-05-18T18:05:22.525Z,1.00
2023-05-18T18:07:49.335Z,1.00
2023-05-18T18:10:15.972Z,1.00
2023-05-18T18:12:43.844Z,1.00
2023-05-18T18:15:11.160Z,1.00
2023-05-18T18:17:37.842Z,1.00
2023-05-18T18:20:05.807Z,1.00
2023-05-18T18:22:34.240Z,1.00
2023-05-18T18:25:02.310Z,1.00
2023-05-18T18:27:28.928Z,1.00
2023-05-18T18:29:56.318Z,1.00
2023-05-18T18:32:22.908Z,1.00
2023-05-18T18:34:49.621Z,1.00
2023-05-18T18:37:17.039Z,1.00
2023-05-18T18:39:43.801Z,1.00
2023-05-18T18:42:10.433Z,1.00
2023-05-18T18:44:37.059Z,1.00
2023-05-18T18:47:03.879Z,1.00
2023-05-18T18:49:30.555Z,1.00
2023-05-18T18:51:58.812Z,1.00
2023-05-18T18:54:26.350Z,1.00
2023-05-18T18:56:53.116Z,1.00
2023-05-18T18:59:19.741Z,1.00
2023-05-18T19:01:46.938Z,1.00
2023-05-18T19:04:13.852Z,1.00
2023-05-18T19:06:42.583Z,1.00
2023-05-18T19:09:09.311Z,1.00
2023-05-18T19:11:36.668Z,1.00
2023-05-18T19:14:04.437Z,1.00
2023-05-18T19:16:31.594Z,1.00
2023-05-18T19:18:58.328Z,1.00
2023-05-18T19:21:26.096Z,1.00
2023-05-18T19:23:52.970Z,1.00
2023-05-18T19:26:19.585Z,1.00
2023-05-18T19:28:46.460Z,1.00
2023-05-18T19:31:13.190Z,1.00
2023-05-18T19:33:39.912Z,1.00
2023-05-18T19:36:06.555Z,1.00
2023-05-18T19:38:33.101Z,1.00
2023-05-18T19:40:59.756Z,1.00
2023-05-18T19:43:26.358Z,1.00
2023-05-18T19:45:53.072Z,1.00
2023-05-18T19:48:19.699Z,1.00
2023-05-18T19:50:47.558Z,1.00
2023-05-18T19:53:14.255Z,1.00
2023-05-18T19:55:41.014Z,1.00
2023-05-18T19:58:07.730Z,1.00
2023-05-18T20:00:34.632Z,1.00
2023-05-18T20:03:03.221Z,1.00
2023-05-18T20:05:30.149Z,1.00
2023-05-18T20:07:58.144Z,1.00
2023-05-18T20:10:25.153Z,1.00
2023-05-18T20:12:52.163Z,1.00
2023-05-18T20:15:19.093Z,1.00
2023-05-18T20:17:46.075Z,1.00
2023-05-18T20:20:12.754Z,1.00
2023-05-18T20:22:39.420Z,1.00
2023-05-18T20:25:06.396Z,1.00
2023-05-18T20:27:32.993Z,1.00
2023-05-18T20:29:59.639Z,1.00
2023-05-18T20:32:26.262Z,1.00
2023-05-18T20:34:52.964Z,1.00
2023-05-18T20:37:19.557Z,1.00
2023-05-18T20:39:50.933Z,1.00
2023-05-18T20:42:21.761Z,1.00
2023-05-18T20:44:49.035Z,1.00
2023-05-18T20:47:20.249Z,1.00
2023-05-18T20:49:47.627Z,1.00
2023-05-18T20:52:14.285Z,1.00
2023-05-18T20:54:41.082Z,1.00
2023-05-18T20:57:08.087Z,1.00
2023-05-18T20:59:34.765Z,1.00
2023-05-18T21:02:01.477Z,1.00
2023-05-18T21:04:28.337Z,1.00
2023-05-18T21:06:54.933Z,1.00
2023-05-18T21:09:21.534Z,1.00
2023-05-18T21:11:48.641Z,1.00
2023-05-18T21:14:15.612Z,1.00
2023-05-18T21:16:42.395Z,1.00
2023-05-18T21:19:09.212Z,1.00
2023-05-18T21:21:35.935Z,1.00
2023-05-18T21:24:02.563Z,1.00
2023-05-18T21:26:29.142Z,1.00
2023-05-18T21:28:55.755Z,1.00
2023-05-18T21:31:22.966Z,1.00
2023-05-18T21:33:51.067Z,1.00
2023-05-18T21:36:19.661Z,1.00
2023-05-18T21:38:46.688Z,1.00
2023-05-18T21:41:13.627Z,1.00
2023-05-18T21:43:40.232Z,1.00
2023-05-18T21:46:09.218Z,1.00
2023-05-18T21:48:36.149Z,1.00
2023-05-18T21:51:04.157Z,1.00
2023-05-18T21:53:30.801Z,1.00
2023-05-18T21:55:57.487Z,1.00
2023-05-18T21:58:24.588Z,1.00
2023-05-18T22:00:51.264Z,1.00
2023-05-18T22:03:17.852Z,1.00
2023-05-18T22:05:44.713Z,1.00
2023-05-18T22:08:11.524Z,1.00
2023-05-18T22:10:38.136Z,1.00
2023-05-18T22:13:07.843Z,1.00
2023-05-18T22:15:36.054Z,1.00
2023-05-18T22:20:31.808Z,1.00
2023-05-18T22:22:58.868Z,1.00
2023-05-18T22:25:26.025Z,1.00
2023-05-18T22:27:52.855Z,1.00
2023-05-18T22:30:20.982Z,1.00
2023-05-18T22:32:47.692Z,1.00
2023-05-18T22:35:14.310Z,1.00
2023-05-18T22:37:40.912Z,1.00
2023-05-18T22:40:08.007Z,1.00
2023-05-18T22:42:34.622Z,1.00
2023-05-18T22:45:02.965Z,1.00
2023-05-18T22:47:30.107Z,1.00
2023-05-18T22:49:56.746Z,1.00
2023-05-18T22:52:23.410Z,1.00
2023-05-18T22:54:50.631Z,1.00
2023-05-18T22:57:17.292Z,1.00
2023-05-18T22:59:43.887Z,1.00
2023-05-18T23:02:10.655Z,1.00
2023-05-18T23:04:37.283Z,1.00
2023-05-18T23:07:04.215Z,1.00
2023-05-18T23:09:31.299Z,1.00
2023-05-18T23:11:59.597Z,1.00
2023-05-18T23:14:28.078Z,1.00
2023-05-18T23:16:58.268Z,1.00
2023-05-18T23:19:26.923Z,1.00
2023-05-18T23:21:53.989Z,1.00
2023-05-18T23:24:20.812Z,1.00
2023-05-18T23:29:14.471Z,1.00
2023-05-18T23:31:41.083Z,1.00
2023-05-18T23:34:07.793Z,1.00
2023-05-18T23:36:37.088Z,1.00
2023-05-18T23:39:03.890Z,1.00
2023-05-18T23:41:31.232Z,1.00
2023-05-18T23:43:58.236Z,1.00
2023-05-18T23:46:25.208Z,1.00
2023-05-18T23:48:52.685Z,1.00
2023-05-18T23:51:22.557Z,1.00
2023-05-18T23:53:50.022Z,1.00
2023-05-18T23:56:18.816Z,1.00
2023-05-18T23:58:46.503Z,1.00
